Flight Track Log - Related Links

Times and Time Zones

All times are in EDT time to prevent confusion due to time zone crossing. See the N724AE flight status page for this flight to view local times or setup timezone preferences in your user account.

Time Position Orientation Groundspeed Altitude Reporting Facility
EDT Latitude Longitude Course Direction KTS MPH feet Rate Location/Type
Tue 08:08:05 PM 39.0500 -84.6833 208° Southwest 163 188 1,400  Level Cincinnati TRACON
Tue 08:08:47 PM 39.0167 -84.7167 218° Southwest 183 211 3,100 2,588 Climbing Cincinnati TRACON
Tue 08:09:47 PM 38.9667 -84.7333 195° South 210 242 5,800 2,750 Climbing Cincinnati TRACON
Tue 08:10:00 PM 38.7890 -84.7541 210° Southwest  Level FlightAware Approximate
Tue 08:10:47 PM 38.9167 -84.7667 207° Southwest 242 278 8,600  Level Cincinnati TRACON
Tue 08:11:00 PM 38.7106 -84.8129 210° Southwest  Level FlightAware Approximate
Tue 08:12:00 PM 38.6309 -84.8684 208° Southwest  Level FlightAware Approximate
Tue 08:12:10 PM 38.8200 -84.8108 200° South 264 304 11,000  Level Indianapolis Center
Tue 08:13:00 PM 38.5504 -84.9220 208° Southwest  Level FlightAware Approximate
Tue 08:13:12 PM 38.7356 -84.8547 202° Southwest 318 366 12,200  Level Indianapolis Center
Tue 08:14:13 PM 38.6456 -84.8978 200° South 339 390 13,700 1,512 Climbing Indianapolis Center
Tue 08:15:15 PM 38.5483 -84.9472 202° Southwest 355 409 15,300 1,707 Climbing Indianapolis Center
Tue 08:16:16 PM 38.4553 -84.9922 201° Southwest 357 411 17,200 1,854 Climbing Indianapolis Center
Tue 08:17:18 PM 38.3642 -85.0381 202° Southwest 353 406 19,100 1,659 Climbing Indianapolis Center
Tue 08:18:19 PM 38.2997 -85.1231 226° Southwest 336 387 20,600 1,463 Climbing Indianapolis Center
Tue 08:19:21 PM 38.2561 -85.2250 241° Southwest 346 398 22,100 1,597 Climbing Indianapolis Center
Tue 08:20:23 PM 38.1994 -85.3575 241° Southwest 352 405 23,900 1,610 Climbing Indianapolis Center
Tue 08:21:24 PM 38.1514 -85.4686 241° Southwest 356 410 25,400 1,463 Climbing Indianapolis Center
Tue 08:22:26 PM 38.1017 -85.5806 241° Southwest 361 415 26,900 1,463 Climbing Indianapolis Center
Tue 08:23:27 PM 38.0517 -85.6878 239° Southwest 355 409 28,400 1,463 Climbing Indianapolis Center
Tue 08:24:29 PM 38.0011 -85.7958 239° Southwest 354 407 29,900 1,452 Climbing Indianapolis Center
Tue 08:25:31 PM 37.9489 -85.9050 239° Southwest 358 412 31,400 1,463 Climbing Indianapolis Center
Tue 08:26:32 PM 37.8969 -86.0139 239° Southwest 360 414 32,900 1,463 Climbing Indianapolis Center
Tue 08:27:34 PM 37.8447 -86.1250 239° Southwest 365 420 34,400 1,317 Climbing Indianapolis Center
Tue 08:28:35 PM 37.7886 -86.2411 239° Southwest 363 418 35,600 780 Climbing Indianapolis Center
Tue 08:29:37 PM 37.7350 -86.3542 239° Southwest 370 426 36,000 194 Climbing Indianapolis Center
Tue 08:30:39 PM 37.6792 -86.4675 238° Southwest 375 432 36,000  Level Indianapolis Center
Tue 08:31:40 PM 37.6156 -86.6000 239° Southwest 381 438 36,000  Level Indianapolis Center
Tue 08:32:42 PM 37.5606 -86.7136 239° Southwest 379 436 36,000  Level Indianapolis Center
Tue 08:33:44 PM 37.5050 -86.8275 238° Southwest 373 429 36,000  Level Indianapolis Center
Tue 08:34:45 PM 37.4500 -86.9397 238° Southwest 374 430 36,000  Level Indianapolis Center
Tue 08:35:58 PM 37.3822 -87.0786 238° Southwest 377 434 36,000  Level Memphis Center
Tue 08:36:58 PM 37.3289 -87.1906 239° Southwest 382 440 36,000  Level Memphis Center
Tue 08:37:58 PM 37.2714 -87.3022 237° Southwest 382 440 36,000  Level Memphis Center
Tue 08:38:58 PM 37.2178 -87.4111 238° Southwest 377 434 36,000  Level Memphis Center
Tue 08:39:58 PM 37.1642 -87.5222 239° Southwest 377 434 36,000  Level Memphis Center
Tue 08:40:58 PM 37.1103 -87.6308 238° Southwest 377 434 36,000  Level Memphis Center
Tue 08:41:58 PM 37.0542 -87.7419 238° Southwest 377 434 36,000  Level Memphis Center
Tue 08:42:58 PM 37.0022 -87.8503 239° Southwest 377 434 36,000  Level Memphis Center
Tue 08:43:58 PM 36.9461 -87.9611 238° Southwest 377 434 36,000  Level Memphis Center
Tue 08:44:58 PM 36.8900 -88.0717 238° Southwest 377 434 36,000  Level Memphis Center
Tue 08:45:58 PM 36.8378 -88.1794 239° Southwest 377 434 36,000  Level Memphis Center
Tue 08:46:58 PM 36.7833 -88.2869 238° Southwest 377 434 36,000  Level Memphis Center
Tue 08:47:58 PM 36.7267 -88.3972 237° Southwest 377 434 36,000  Level Memphis Center
Tue 08:48:58 PM 36.6719 -88.5022 237° Southwest 377 434 36,000  Level Memphis Center
Tue 08:49:58 PM 36.6153 -88.6119 237° Southwest 377 434 36,000  Level Memphis Center
Tue 08:50:58 PM 36.5583 -88.7164 236° Southwest 377 434 36,000  Level Memphis Center
Tue 08:51:58 PM 36.5056 -88.8208 238° Southwest 377 434 36,000  Level Memphis Center
Tue 08:52:58 PM 36.4483 -88.9250 236° Southwest 377 434 36,000  Level Memphis Center
Tue 08:53:58 PM 36.3933 -89.0319 237° Southwest 377 434 36,000  Level Memphis Center
Tue 08:54:58 PM 36.3361 -89.1358 236° Southwest 377 434 36,000  Level Memphis Center
Tue 08:55:58 PM 36.2869 -89.2369 239° Southwest 383 441 36,000  Level Memphis Center
Tue 08:56:58 PM 36.2275 -89.3433 235° Southwest 383 441 36,000  Level Memphis Center
Tue 08:57:58 PM 36.1719 -89.4494 237° Southwest 383 441 36,000  Level Memphis Center
Tue 08:58:58 PM 36.1183 -89.5553 238° Southwest 383 441 36,000  Level Memphis Center
Tue 08:59:58 PM 36.0628 -89.6611 237° Southwest 373 429 36,000  Level Memphis Center
Tue 09:00:58 PM 36.0050 -89.7694 237° Southwest 373 429 36,000  Level Memphis Center
Tue 09:01:58 PM 35.9469 -89.8750 236° Southwest 373 429 36,000  Level Memphis Center
Tue 09:02:58 PM 35.8933 -89.9803 238° Southwest 373 429 36,000  Level Memphis Center
Tue 09:03:58 PM 35.8350 -90.0856 236° Southwest 373 429 36,000  Level Memphis Center
Tue 09:04:58 PM 35.7769 -90.1933 236° Southwest 373 429 36,000  Level Memphis Center
Tue 09:05:58 PM 35.7186 -90.2983 236° Southwest 373 429 36,000  Level Memphis Center
Tue 09:06:58 PM 35.6644 -90.4106 239° Southwest 367 422 36,000  Level Memphis Center
Tue 09:07:58 PM 35.6081 -90.5153 237° Southwest 367 422 36,000  Level Memphis Center
Tue 09:08:58 PM 35.5514 -90.6225 237° Southwest 373 429 36,000  Level Memphis Center
Tue 09:09:58 PM 35.4950 -90.7242 236° Southwest 373 429 36,000  Level Memphis Center
Tue 09:10:58 PM 35.4361 -90.8311 236° Southwest 373 429 36,000  Level Memphis Center
Tue 09:11:58 PM 35.3817 -90.9325 237° Southwest 373 429 36,000  Level Memphis Center
Tue 09:12:58 PM 35.3247 -91.0339 235° Southwest 373 429 36,000  Level Memphis Center
Tue 09:13:58 PM 35.2658 -91.1353 235° Southwest 373 429 36,000  Level Memphis Center
Tue 09:14:58 PM 35.2108 -91.2339 236° Southwest 366 421 36,000  Level Memphis Center
Tue 09:15:58 PM 35.1539 -91.3350 235° Southwest 366 421 36,000  Level Memphis Center
Tue 09:16:58 PM 35.0967 -91.4356 235° Southwest 367 422 36,000  Level Memphis Center
Tue 09:17:58 PM 35.0394 -91.5364 235° Southwest 367 422 36,000  Level Memphis Center
Tue 09:18:58 PM 34.9842 -91.6394 237° Southwest 362 417 36,000  Level Memphis Center
Tue 09:19:58 PM 34.9289 -91.7400 236° Southwest 362 417 36,000  Level Memphis Center
Tue 09:20:58 PM 34.8736 -91.8353 235° Southwest 362 417 36,000  Level Memphis Center
Tue 09:21:58 PM 34.8181 -91.9356 236° Southwest 362 417 36,000  Level Memphis Center
Tue 09:22:58 PM 34.7603 -92.0381 236° Southwest 362 417 36,000  Level Memphis Center
Tue 09:23:58 PM 34.7028 -92.1356 234° Southwest 368 423 36,000  Level Memphis Center
Tue 09:24:58 PM 34.6614 -92.2433 245° Southwest 362 417 36,000  Level Memphis Center
Tue 09:25:58 PM 34.6325 -92.3536 252° West 352 405 36,000  Level Memphis Center
Tue 09:26:58 PM 34.6036 -92.4639 252° West 347 399 36,000  Level Memphis Center
Tue 09:27:58 PM 34.5725 -92.5767 252° West 347 399 36,000  Level Memphis Center
Tue 09:28:58 PM 34.5414 -92.6869 251° West 347 399 36,000  Level Memphis Center
Tue 09:29:58 PM 34.5142 -92.7994 254° West 342 394 36,000  Level Memphis Center
Tue 09:30:58 PM 34.4894 -92.8844 251° West 342 394 36,000  Level Memphis Center
Tue 09:31:58 PM 34.4578 -93.0044 252° West 342 394 36,000  Level Memphis Center
Tue 09:32:58 PM 34.4281 -93.1169 252° West 347 399 36,000  Level Memphis Center
Tue 09:33:58 PM 34.3964 -93.2267 251° West 352 405 36,000  Level Memphis Center
Tue 09:34:58 PM 34.3689 -93.3389 253° West 352 405 36,000  Level Memphis Center
Tue 09:35:55 PM 34.3383 -93.4575 253° West 346 398 36,000  Level Fort Worth Center
Tue 09:36:55 PM 34.3106 -93.5667 253° West 335 386 36,000  Level Fort Worth Center
Tue 09:37:55 PM 34.2783 -93.6739 250° West 340 391 36,000  Level Fort Worth Center
Tue 09:38:55 PM 34.2481 -93.7831 251° West 345 397 36,000  Level Fort Worth Center
Tue 09:39:55 PM 34.2178 -93.8922 251° West 350 403 36,000  Level Fort Worth Center
Tue 09:40:55 PM 34.1875 -94.0014 251° West 350 403 36,000 -50 Level Fort Worth Center
Tue 09:41:55 PM 34.1572 -94.1131 252° West 350 403 35,900 -550 Descending Fort Worth Center
Tue 09:42:55 PM 34.1264 -94.2197 251° West 350 403 34,900 -1,000 Descending Fort Worth Center
Tue 09:43:55 PM 34.1478 -94.3242 284° West 343 395 33,900 -1,000 Descending Fort Worth Center
Tue 09:44:55 PM 34.1778 -94.4336 288° West 341 392 32,900 -950 Descending Fort Worth Center
Tue 09:45:55 PM 34.2117 -94.5481 290° West 347 399 32,000 -950 Descending Fort Worth Center
Tue 09:46:55 PM 34.2328 -94.6553 283° West 342 394 31,000 -1,000 Descending Fort Worth Center
Tue 09:47:55 PM 34.2036 -94.7542 250° West 322 371 30,000 -1,000 Descending Fort Worth Center
Tue 09:48:55 PM 34.1511 -94.8411 234° Southwest 315 362 29,000 -1,000 Descending Fort Worth Center
Tue 09:49:55 PM 34.0553 -94.8489 184° South 286 329 28,000 -1,000 Descending Fort Worth Center
Tue 09:50:55 PM 33.9506 -94.8269 170° South 332 382 27,000 -950 Descending Fort Worth Center
Tue 09:51:55 PM 33.8703 -94.8744 206° Southwest 310 357 26,100 -950 Descending Fort Worth Center
Tue 09:52:55 PM 33.8322 -94.9656 243° Southwest 285 328 25,100 -950 Descending Fort Worth Center
Tue 09:53:55 PM 33.8053 -95.0764 254° West 309 356 24,200 -550 Descending Fort Worth Center
Tue 09:54:55 PM 33.7781 -95.1969 255° West 345 397 24,000 -100 Descending Fort Worth Center
Tue 09:55:55 PM 33.7511 -95.3150 255° West 364 419 24,000  Level Fort Worth Center
Tue 09:56:55 PM 33.7236 -95.4306 254° West 369 425 24,000  Level Fort Worth Center
Tue 09:57:55 PM 33.6964 -95.5511 255° West 369 425 24,000  Level Fort Worth Center
Tue 09:58:55 PM 33.6689 -95.6789 256° West 374 430 24,000  Level Fort Worth Center
Tue 09:59:55 PM 33.6411 -95.7967 254° West 369 425 24,000  Level Fort Worth Center
Tue 10:00:55 PM 33.6197 -95.9019 256° West 369 425 24,000 -850 Level Fort Worth Center
Tue 10:01:55 PM 33.5708 -96.0100 242° Southwest 364 419 22,300 -1,950 Descending Fort Worth Center
Tue 10:02:55 PM 33.5197 -96.1228 241° Southwest 353 406 20,100 -2,000 Descending Fort Worth Center
Tue 10:03:55 PM 33.4831 -96.2131 244° Southwest 347 399 18,300 -1,850 Descending Fort Worth Center
Tue 10:04:55 PM 33.4361 -96.3181 242° Southwest 335 386 16,400 -1,700 Descending Fort Worth Center
Tue 10:05:55 PM 33.4011 -96.3958 242° Southwest 315 362 14,900 -1,550 Descending Fort Worth Center
Tue 10:06:55 PM 33.3350 -96.4786 226° Southwest 310 357 13,300 -1,500 Descending Fort Worth Center
Tue 10:07:55 PM 33.2792 -96.5436 224° Southwest 310 357 11,900 -1,150 Descending Fort Worth Center
Tue 10:08:55 PM 33.2192 -96.6164 225° Southwest 317 365 11,000 -450 Descending Fort Worth Center
Tue 10:09:55 PM 33.1528 -96.6939 224° Southwest 310 357 11,000  Level Fort Worth Center
Tue 10:10:55 PM 33.0989 -96.7614 226° Southwest 310 357 11,000  Level Fort Worth Center
Tue 10:11:30 PM 33.0500 -96.8000 214° Southwest 305 351 11,000 63 Level Dallas / Fort Worth TRACON
Tue 10:12:30 PM 33.0000 -96.8667 228° Southwest 222 255 11,100 50 Climbing Dallas / Fort Worth TRACON
Tue 10:13:30 PM 32.9500 -96.9000 209° Southwest 226 260 11,100  Level Dallas / Fort Worth TRACON
Tue 10:14:30 PM 32.9000 -96.9000 180° South 236 272 11,100 -678 Level Dallas / Fort Worth TRACON
Tue 10:15:25 PM 32.8333 -96.9000 180° South 224 258 9,800 -1,438 Descending Dallas / Fort Worth TRACON
Tue 10:16:31 PM 32.7667 -96.9000 180° South 218 251 8,200 -1,276 Descending Dallas / Fort Worth TRACON
Tue 10:17:32 PM 32.7167 -96.9167 196° South 194 223 7,100 -1,041 Descending Dallas / Fort Worth TRACON
Tue 10:18:32 PM 32.6667 -96.9167 180° South 186 214 6,100 -500 Descending Dallas / Fort Worth TRACON
Tue 10:19:32 PM 32.6000 -96.9167 180° South 187 215 6,100  Level Dallas / Fort Worth TRACON
Tue 10:20:33 PM 32.5667 -96.9333 203° Southwest 206 237 6,100 -99 Level Dallas / Fort Worth TRACON
Tue 10:21:33 PM 32.6000 -97.0000 301° West 212 244 5,900 -750 Descending Dallas / Fort Worth TRACON
Tue 10:22:33 PM 32.6333 -97.0500 308° West 218 251 4,600 -1,100 Descending Dallas / Fort Worth TRACON
Tue 10:23:33 PM 32.6833 -97.0500 360° North 195 224 3,700 -900 Descending Dallas / Fort Worth TRACON

Login

Don't have an account? Register now (free) for customized features, flight alerts, and more!